sensor_id;sensor_type;location;lat;lon;timestamp;temperature;humidity
4643;DHT22;2334;48.710;9.622;2023-01-10T00:01:57;4.90;99.90
4643;DHT22;2334;48.710;9.622;2023-01-10T00:04:24;4.90;99.90
4643;DHT22;2334;48.710;9.622;2023-01-10T00:06:53;4.80;99.90
4643;DHT22;2334;48.710;9.622;2023-01-10T00:09:19;4.90;99.90
4643;DHT22;2334;48.710;9.622;2023-01-10T00:11:47;4.90;99.90
4643;DHT22;2334;48.710;9.622;2023-01-10T00:14:31;4.90;99.90
4643;DHT22;2334;48.710;9.622;2023-01-10T00:17:01;4.90;99.90
4643;DHT22;2334;48.710;9.622;2023-01-10T00:19:28;4.90;99.90
4643;DHT22;2334;48.710;9.622;2023-01-10T00:21:55;4.90;99.90
4643;DHT22;2334;48.710;9.622;2023-01-10T00:24:37;4.80;99.90
4643;DHT22;2334;48.710;9.622;2023-01-10T00:27:04;4.80;99.90
4643;DHT22;2334;48.710;9.622;2023-01-10T00:29:31;4.80;99.90
4643;DHT22;2334;48.710;9.622;2023-01-10T00:31:58;4.70;99.90
4643;DHT22;2334;48.710;9.622;2023-01-10T00:34:26;4.70;99.90
4643;DHT22;2334;48.710;9.622;2023-01-10T00:36:53;4.70;99.90
4643;DHT22;2334;48.710;9.622;2023-01-10T00:39:20;4.70;99.90
4643;DHT22;2334;48.710;9.622;2023-01-10T00:41:51;4.70;99.90
4643;DHT22;2334;48.710;9.622;2023-01-10T00:44:35;4.70;99.90
4643;DHT22;2334;48.710;9.622;2023-01-10T00:47:01;4.70;99.90
4643;DHT22;2334;48.710;9.622;2023-01-10T00:49:30;4.70;99.90
4643;DHT22;2334;48.710;9.622;2023-01-10T00:51:57;4.70;99.90
4643;DHT22;2334;48.710;9.622;2023-01-10T00:54:24;4.70;99.90
4643;DHT22;2334;48.710;9.622;2023-01-10T00:56:51;4.70;99.90
4643;DHT22;2334;48.710;9.622;2023-01-10T00:59:18;4.70;99.90
4643;DHT22;2334;48.710;9.622;2023-01-10T01:01:45;4.70;99.90
4643;DHT22;2334;48.710;9.622;2023-01-10T01:04:12;4.60;99.90
4643;DHT22;2334;48.710;9.622;2023-01-10T01:06:42;4.70;99.90
4643;DHT22;2334;48.710;9.622;2023-01-10T01:09:08;4.60;99.90
4643;DHT22;2334;48.710;9.622;2023-01-10T01:11:35;4.60;99.90
4643;DHT22;2334;48.710;9.622;2023-01-10T01:14:02;4.70;99.90
4643;DHT22;2334;48.710;9.622;2023-01-10T01:16:29;4.70;99.90
4643;DHT22;2334;48.710;9.622;2023-01-10T01:18:56;4.70;99.90
4643;DHT22;2334;48.710;9.622;2023-01-10T01:21:23;4.70;99.90
4643;DHT22;2334;48.710;9.622;2023-01-10T01:23:54;4.70;99.90
4643;DHT22;2334;48.710;9.622;2023-01-10T01:26:22;4.60;99.90
4643;DHT22;2334;48.710;9.622;2023-01-10T01:28:49;4.60;99.90
4643;DHT22;2334;48.710;9.622;2023-01-10T01:31:16;4.70;99.90
4643;DHT22;2334;48.710;9.622;2023-01-10T01:33:43;4.70;99.90
4643;DHT22;2334;48.710;9.622;2023-01-10T01:36:11;4.70;99.90
4643;DHT22;2334;48.710;9.622;2023-01-10T01:38:39;4.70;99.90
4643;DHT22;2334;48.710;9.622;2023-01-10T01:41:07;4.70;99.90
4643;DHT22;2334;48.710;9.622;2023-01-10T01:44:01;4.60;99.90
4643;DHT22;2334;48.710;9.622;2023-01-10T01:46:28;4.60;99.90
4643;DHT22;2334;48.710;9.622;2023-01-10T01:48:55;4.60;99.90
4643;DHT22;2334;48.710;9.622;2023-01-10T01:51:24;4.60;99.90
4643;DHT22;2334;48.710;9.622;2023-01-10T01:53:56;4.60;99.90
4643;DHT22;2334;48.710;9.622;2023-01-10T01:56:29;4.60;99.90
4643;DHT22;2334;48.710;9.622;2023-01-10T01:58:59;4.70;99.90
4643;DHT22;2334;48.710;9.622;2023-01-10T02:01:27;4.60;99.90
4643;DHT22;2334;48.710;9.622;2023-01-10T02:04:00;4.60;99.90
4643;DHT22;2334;48.710;9.622;2023-01-10T02:06:28;4.60;99.90
4643;DHT22;2334;48.710;9.622;2023-01-10T02:09:02;4.60;99.90
4643;DHT22;2334;48.710;9.622;2023-01-10T02:11:32;4.60;99.90
4643;DHT22;2334;48.710;9.622;2023-01-10T02:14:00;4.60;99.90
4643;DHT22;2334;48.710;9.622;2023-01-10T02:16:30;4.50;99.90
4643;DHT22;2334;48.710;9.622;2023-01-10T02:18:57;4.50;99.90
4643;DHT22;2334;48.710;9.622;2023-01-10T02:21:54;4.50;99.90
4643;DHT22;2334;48.710;9.622;2023-01-10T02:24:52;4.50;99.90
4643;DHT22;2334;48.710;9.622;2023-01-10T02:27:27;4.50;99.90
4643;DHT22;2334;48.710;9.622;2023-01-10T02:30:32;4.50;99.90
4643;DHT22;2334;48.710;9.622;2023-01-10T02:33:09;4.50;99.90
4643;DHT22;2334;48.710;9.622;2023-01-10T02:36:00;4.50;99.90
4643;DHT22;2334;48.710;9.622;2023-01-10T02:38:42;4.50;99.90
4643;DHT22;2334;48.710;9.622;2023-01-10T02:41:21;4.50;99.90
4643;DHT22;2334;48.710;9.622;2023-01-10T02:43:56;4.50;99.90
4643;DHT22;2334;48.710;9.622;2023-01-10T02:46:28;4.50;99.90
4643;DHT22;2334;48.710;9.622;2023-01-10T02:48:57;4.50;99.90
4643;DHT22;2334;48.710;9.622;2023-01-10T02:51:26;4.30;99.90
4643;DHT22;2334;48.710;9.622;2023-01-10T02:53:56;4.40;99.90
4643;DHT22;2334;48.710;9.622;2023-01-10T02:59:39;4.20;99.90
4643;DHT22;2334;48.710;9.622;2023-01-10T03:02:14;4.30;99.90
4643;DHT22;2334;48.710;9.622;2023-01-10T03:04:50;4.30;99.90
4643;DHT22;2334;48.710;9.622;2023-01-10T03:07:25;4.30;99.90
4643;DHT22;2334;48.710;9.622;2023-01-10T03:09:57;4.20;99.90
4643;DHT22;2334;48.710;9.622;2023-01-10T03:12:31;4.20;99.90
4643;DHT22;2334;48.710;9.622;2023-01-10T03:15:02;4.20;99.90
4643;DHT22;2334;48.710;9.622;2023-01-10T03:17:30;4.20;99.90
4643;DHT22;2334;48.710;9.622;2023-01-10T03:20:01;4.20;99.90
4643;DHT22;2334;48.710;9.622;2023-01-10T03:22:30;4.20;99.90
4643;DHT22;2334;48.710;9.622;2023-01-10T03:24:59;4.10;99.90
4643;DHT22;2334;48.710;9.622;2023-01-10T03:27:30;4.20;99.90
4643;DHT22;2334;48.710;9.622;2023-01-10T03:30:02;4.20;99.90
4643;DHT22;2334;48.710;9.622;2023-01-10T03:32:31;4.20;99.90
4643;DHT22;2334;48.710;9.622;2023-01-10T03:35:00;4.20;99.90
4643;DHT22;2334;48.710;9.622;2023-01-10T03:37:33;4.20;99.90
4643;DHT22;2334;48.710;9.622;2023-01-10T03:40:06;4.20;99.90
4643;DHT22;2334;48.710;9.622;2023-01-10T03:42:40;4.30;99.90
4643;DHT22;2334;48.710;9.622;2023-01-10T03:45:27;4.30;99.90
4643;DHT22;2334;48.710;9.622;2023-01-10T03:47:57;4.30;99.90
4643;DHT22;2334;48.710;9.622;2023-01-10T03:50:29;4.20;99.90
4643;DHT22;2334;48.710;9.622;2023-01-10T03:52:56;4.20;99.90
4643;DHT22;2334;48.710;9.622;2023-01-10T03:55:25;4.30;99.90
4643;DHT22;2334;48.710;9.622;2023-01-10T03:57:53;4.20;99.90
4643;DHT22;2334;48.710;9.622;2023-01-10T04:00:20;4.30;99.90
4643;DHT22;2334;48.710;9.622;2023-01-10T04:02:49;4.30;99.90
4643;DHT22;2334;48.710;9.622;2023-01-10T04:05:16;4.30;99.90
4643;DHT22;2334;48.710;9.622;2023-01-10T04:07:44;4.40;99.90
4643;DHT22;2334;48.710;9.622;2023-01-10T04:10:14;4.30;99.90
4643;DHT22;2334;48.710;9.622;2023-01-10T04:12:41;4.40;99.90
4643;DHT22;2334;48.710;9.622;2023-01-10T04:15:09;4.40;99.90
4643;DHT22;2334;48.710;9.622;2023-01-10T04:17:35;4.50;99.90
4643;DHT22;2334;48.710;9.622;2023-01-10T04:20:03;4.40;99.90
4643;DHT22;2334;48.710;9.622;2023-01-10T04:22:30;4.50;99.90
4643;DHT22;2334;48.710;9.622;2023-01-10T04:24:58;4.50;99.90
4643;DHT22;2334;48.710;9.622;2023-01-10T04:27:25;4.50;99.90
4643;DHT22;2334;48.710;9.622;2023-01-10T04:29:52;4.40;99.90
4643;DHT22;2334;48.710;9.622;2023-01-10T04:32:18;4.50;99.90
4643;DHT22;2334;48.710;9.622;2023-01-10T04:34:45;4.50;99.90
4643;DHT22;2334;48.710;9.622;2023-01-10T04:37:12;4.50;99.90
4643;DHT22;2334;48.710;9.622;2023-01-10T04:39:39;4.50;99.90
4643;DHT22;2334;48.710;9.622;2023-01-10T04:42:07;4.50;99.90
4643;DHT22;2334;48.710;9.622;2023-01-10T04:44:34;4.50;99.90
4643;DHT22;2334;48.710;9.622;2023-01-10T04:47:01;4.50;99.90
4643;DHT22;2334;48.710;9.622;2023-01-10T04:49:28;4.50;99.90
4643;DHT22;2334;48.710;9.622;2023-01-10T04:51:55;4.50;99.90
4643;DHT22;2334;48.710;9.622;2023-01-10T04:54:22;4.50;99.90
4643;DHT22;2334;48.710;9.622;2023-01-10T04:56:49;4.50;99.90
4643;DHT22;2334;48.710;9.622;2023-01-10T04:59:17;4.40;99.90
4643;DHT22;2334;48.710;9.622;2023-01-10T05:01:44;4.50;99.90
4643;DHT22;2334;48.710;9.622;2023-01-10T05:04:11;4.50;99.90
4643;DHT22;2334;48.710;9.622;2023-01-10T05:06:38;4.50;99.90
4643;DHT22;2334;48.710;9.622;2023-01-10T05:09:05;4.50;99.90
4643;DHT22;2334;48.710;9.622;2023-01-10T05:11:32;4.60;99.90
4643;DHT22;2334;48.710;9.622;2023-01-10T05:13:59;4.60;99.90
4643;DHT22;2334;48.710;9.622;2023-01-10T05:16:27;4.60;99.90
4643;DHT22;2334;48.710;9.622;2023-01-10T05:18:54;4.60;99.90
4643;DHT22;2334;48.710;9.622;2023-01-10T05:21:21;4.60;99.90
4643;DHT22;2334;48.710;9.622;2023-01-10T05:23:48;4.60;99.90
4643;DHT22;2334;48.710;9.622;2023-01-10T05:26:16;4.60;99.90
4643;DHT22;2334;48.710;9.622;2023-01-10T05:28:43;4.60;99.90
4643;DHT22;2334;48.710;9.622;2023-01-10T05:31:11;4.60;99.90
4643;DHT22;2334;48.710;9.622;2023-01-10T05:33:43;4.60;99.90
4643;DHT22;2334;48.710;9.622;2023-01-10T05:36:10;4.60;99.90
4643;DHT22;2334;48.710;9.622;2023-01-10T05:38:37;4.60;99.90
4643;DHT22;2334;48.710;9.622;2023-01-10T05:41:04;4.50;99.90
4643;DHT22;2334;48.710;9.622;2023-01-10T05:43:31;4.50;99.90
4643;DHT22;2334;48.710;9.622;2023-01-10T05:45:58;4.50;99.90
4643;DHT22;2334;48.710;9.622;2023-01-10T05:48:25;4.50;99.90
4643;DHT22;2334;48.710;9.622;2023-01-10T05:50:53;4.40;99.90
4643;DHT22;2334;48.710;9.622;2023-01-10T05:53:20;4.50;99.90
4643;DHT22;2334;48.710;9.622;2023-01-10T05:55:52;4.40;99.90
4643;DHT22;2334;48.710;9.622;2023-01-10T05:58:19;4.40;99.90
4643;DHT22;2334;48.710;9.622;2023-01-10T06:00:46;4.40;99.90
4643;DHT22;2334;48.710;9.622;2023-01-10T06:03:13;4.30;99.90
4643;DHT22;2334;48.710;9.622;2023-01-10T06:05:40;4.30;99.90
4643;DHT22;2334;48.710;9.622;2023-01-10T06:08:08;4.20;99.90
4643;DHT22;2334;48.710;9.622;2023-01-10T06:10:35;4.20;99.90
4643;DHT22;2334;48.710;9.622;2023-01-10T06:13:02;4.20;99.90
4643;DHT22;2334;48.710;9.622;2023-01-10T06:15:30;4.20;99.90
4643;DHT22;2334;48.710;9.622;2023-01-10T06:17:57;4.20;99.90
4643;DHT22;2334;48.710;9.622;2023-01-10T06:20:24;4.20;99.90
4643;DHT22;2334;48.710;9.622;2023-01-10T06:22:52;4.20;99.90
4643;DHT22;2334;48.710;9.622;2023-01-10T06:25:20;4.20;99.90
4643;DHT22;2334;48.710;9.622;2023-01-10T06:27:47;4.20;99.90
4643;DHT22;2334;48.710;9.622;2023-01-10T06:30:14;4.10;99.90
4643;DHT22;2334;48.710;9.622;2023-01-10T06:32:41;4.20;99.90
4643;DHT22;2334;48.710;9.622;2023-01-10T06:35:08;4.20;99.90
4643;DHT22;2334;48.710;9.622;2023-01-10T06:37:35;4.10;99.90
4643;DHT22;2334;48.710;9.622;2023-01-10T06:40:03;4.10;99.90
4643;DHT22;2334;48.710;9.622;2023-01-10T06:42:31;4.20;99.90
4643;DHT22;2334;48.710;9.622;2023-01-10T06:44:58;4.20;99.90
4643;DHT22;2334;48.710;9.622;2023-01-10T06:47:25;4.10;99.90
4643;DHT22;2334;48.710;9.622;2023-01-10T06:49:52;4.10;99.90
4643;DHT22;2334;48.710;9.622;2023-01-10T06:52:19;4.10;99.90
4643;DHT22;2334;48.710;9.622;2023-01-10T06:54:46;4.10;99.90
4643;DHT22;2334;48.710;9.622;2023-01-10T06:57:13;4.10;99.90
4643;DHT22;2334;48.710;9.622;2023-01-10T06:59:42;4.10;99.90
4643;DHT22;2334;48.710;9.622;2023-01-10T07:02:09;4.10;99.90
4643;DHT22;2334;48.710;9.622;2023-01-10T07:04:37;4.00;99.90
4643;DHT22;2334;48.710;9.622;2023-01-10T07:07:04;4.10;99.90
4643;DHT22;2334;48.710;9.622;2023-01-10T07:09:31;4.10;99.90
4643;DHT22;2334;48.710;9.622;2023-01-10T07:11:58;4.10;99.90
4643;DHT22;2334;48.710;9.622;2023-01-10T07:14:25;4.10;99.90
4643;DHT22;2334;48.710;9.622;2023-01-10T07:16:53;4.10;99.90
4643;DHT22;2334;48.710;9.622;2023-01-10T07:19:20;4.10;99.90
4643;DHT22;2334;48.710;9.622;2023-01-10T07:21:47;4.10;99.90
4643;DHT22;2334;48.710;9.622;2023-01-10T07:24:14;4.10;99.90
4643;DHT22;2334;48.710;9.622;2023-01-10T07:26:41;4.10;99.90
4643;DHT22;2334;48.710;9.622;2023-01-10T07:29:08;4.10;99.90
4643;DHT22;2334;48.710;9.622;2023-01-10T07:31:34;4.00;99.90
4643;DHT22;2334;48.710;9.622;2023-01-10T07:34:03;4.10;99.90
4643;DHT22;2334;48.710;9.622;2023-01-10T07:36:30;4.10;99.90
4643;DHT22;2334;48.710;9.622;2023-01-10T07:38:56;4.10;99.90
4643;DHT22;2334;48.710;9.622;2023-01-10T07:41:23;4.10;99.90
4643;DHT22;2334;48.710;9.622;2023-01-10T07:43:50;4.10;99.90
4643;DHT22;2334;48.710;9.622;2023-01-10T07:46:17;4.10;99.90
4643;DHT22;2334;48.710;9.622;2023-01-10T07:48:44;4.10;99.90
4643;DHT22;2334;48.710;9.622;2023-01-10T07:51:14;4.10;99.90
4643;DHT22;2334;48.710;9.622;2023-01-10T07:53:41;4.10;99.90
4643;DHT22;2334;48.710;9.622;2023-01-10T07:56:08;4.10;99.90
4643;DHT22;2334;48.710;9.622;2023-01-10T07:58:35;4.20;99.90
4643;DHT22;2334;48.710;9.622;2023-01-10T08:01:03;4.10;99.90
4643;DHT22;2334;48.710;9.622;2023-01-10T08:03:30;4.10;99.90
4643;DHT22;2334;48.710;9.622;2023-01-10T08:05:59;4.20;99.90
4643;DHT22;2334;48.710;9.622;2023-01-10T08:08:28;4.30;99.90
4643;DHT22;2334;48.710;9.622;2023-01-10T08:10:55;4.30;99.90
4643;DHT22;2334;48.710;9.622;2023-01-10T08:13:24;4.30;99.90
4643;DHT22;2334;48.710;9.622;2023-01-10T08:15:51;4.30;99.90
4643;DHT22;2334;48.710;9.622;2023-01-10T08:18:19;4.40;99.90
4643;DHT22;2334;48.710;9.622;2023-01-10T08:20:47;4.40;99.90
4643;DHT22;2334;48.710;9.622;2023-01-10T08:23:14;4.30;99.90
4643;DHT22;2334;48.710;9.622;2023-01-10T08:25:43;4.40;99.90
4643;DHT22;2334;48.710;9.622;2023-01-10T08:28:11;4.40;99.90
4643;DHT22;2334;48.710;9.622;2023-01-10T08:30:38;4.40;99.90
4643;DHT22;2334;48.710;9.622;2023-01-10T08:33:06;4.50;99.90
4643;DHT22;2334;48.710;9.622;2023-01-10T08:35:36;4.50;99.90
4643;DHT22;2334;48.710;9.622;2023-01-10T08:38:03;4.50;99.90
4643;DHT22;2334;48.710;9.622;2023-01-10T08:40:30;4.50;99.90
4643;DHT22;2334;48.710;9.622;2023-01-10T08:43:00;4.50;99.90
4643;DHT22;2334;48.710;9.622;2023-01-10T08:45:27;4.60;99.90
4643;DHT22;2334;48.710;9.622;2023-01-10T08:47:55;4.60;99.90
4643;DHT22;2334;48.710;9.622;2023-01-10T08:50:23;4.60;99.90
4643;DHT22;2334;48.710;9.622;2023-01-10T08:52:50;4.60;99.90
4643;DHT22;2334;48.710;9.622;2023-01-10T08:55:17;4.60;99.90
4643;DHT22;2334;48.710;9.622;2023-01-10T08:57:44;4.60;99.90
4643;DHT22;2334;48.710;9.622;2023-01-10T09:00:13;4.80;99.90
4643;DHT22;2334;48.710;9.622;2023-01-10T09:02:41;4.70;99.90
4643;DHT22;2334;48.710;9.622;2023-01-10T09:05:09;4.70;99.90
4643;DHT22;2334;48.710;9.622;2023-01-10T09:07:36;4.70;99.90
4643;DHT22;2334;48.710;9.622;2023-01-10T09:10:06;4.70;99.90
4643;DHT22;2334;48.710;9.622;2023-01-10T09:12:33;4.70;99.90
4643;DHT22;2334;48.710;9.622;2023-01-10T09:15:19;4.80;99.90
4643;DHT22;2334;48.710;9.622;2023-01-10T09:17:46;4.80;99.90
4643;DHT22;2334;48.710;9.622;2023-01-10T09:20:14;4.90;99.90
4643;DHT22;2334;48.710;9.622;2023-01-10T09:22:41;4.90;99.90
4643;DHT22;2334;48.710;9.622;2023-01-10T09:25:08;5.00;99.90
4643;DHT22;2334;48.710;9.622;2023-01-10T09:27:35;5.00;99.90
4643;DHT22;2334;48.710;9.622;2023-01-10T09:30:02;5.00;99.90
4643;DHT22;2334;48.710;9.622;2023-01-10T09:32:31;5.00;99.90
4643;DHT22;2334;48.710;9.622;2023-01-10T09:34:58;5.00;99.90
4643;DHT22;2334;48.710;9.622;2023-01-10T09:37:24;5.00;99.90
4643;DHT22;2334;48.710;9.622;2023-01-10T09:39:51;5.00;99.90
4643;DHT22;2334;48.710;9.622;2023-01-10T09:42:26;5.10;99.90
4643;DHT22;2334;48.710;9.622;2023-01-10T09:45:01;5.10;99.90
4643;DHT22;2334;48.710;9.622;2023-01-10T09:47:37;5.10;99.90
4643;DHT22;2334;48.710;9.622;2023-01-10T09:50:13;5.20;99.90
4643;DHT22;2334;48.710;9.622;2023-01-10T09:52:46;5.30;99.90
4643;DHT22;2334;48.710;9.622;2023-01-10T09:55:22;5.30;99.90
4643;DHT22;2334;48.710;9.622;2023-01-10T09:57:52;5.40;99.90
4643;DHT22;2334;48.710;9.622;2023-01-10T10:00:23;5.40;99.90
4643;DHT22;2334;48.710;9.622;2023-01-10T10:02:54;5.40;99.90
4643;DHT22;2334;48.710;9.622;2023-01-10T10:05:23;5.40;99.90
4643;DHT22;2334;48.710;9.622;2023-01-10T10:07:53;5.60;99.90
4643;DHT22;2334;48.710;9.622;2023-01-10T10:10:25;5.60;99.90
4643;DHT22;2334;48.710;9.622;2023-01-10T10:13:07;5.60;99.90
4643;DHT22;2334;48.710;9.622;2023-01-10T10:15:42;5.60;99.90
4643;DHT22;2334;48.710;9.622;2023-01-10T10:18:21;5.60;99.90
4643;DHT22;2334;48.710;9.622;2023-01-10T10:20:57;5.60;99.90
4643;DHT22;2334;48.710;9.622;2023-01-10T10:23:43;5.60;99.90
4643;DHT22;2334;48.710;9.622;2023-01-10T10:26:15;5.60;99.90
4643;DHT22;2334;48.710;9.622;2023-01-10T10:28:57;5.60;99.90
4643;DHT22;2334;48.710;9.622;2023-01-10T10:31:39;5.60;99.90
4643;DHT22;2334;48.710;9.622;2023-01-10T10:34:19;5.60;99.90
4643;DHT22;2334;48.710;9.622;2023-01-10T10:36:50;5.70;99.90
4643;DHT22;2334;48.710;9.622;2023-01-10T10:39:21;5.70;99.90
4643;DHT22;2334;48.710;9.622;2023-01-10T10:41:51;5.70;99.90
4643;DHT22;2334;48.710;9.622;2023-01-10T10:44:29;5.70;99.90
4643;DHT22;2334;48.710;9.622;2023-01-10T10:46:59;5.80;99.90
4643;DHT22;2334;48.710;9.622;2023-01-10T10:49:35;5.80;99.90
4643;DHT22;2334;48.710;9.622;2023-01-10T10:52:11;5.80;99.90
4643;DHT22;2334;48.710;9.622;2023-01-10T10:54:40;5.80;99.90
4643;DHT22;2334;48.710;9.622;2023-01-10T10:57:08;5.70;99.90
4643;DHT22;2334;48.710;9.622;2023-01-10T10:59:37;5.70;99.90
4643;DHT22;2334;48.710;9.622;2023-01-10T11:02:18;5.70;99.90
4643;DHT22;2334;48.710;9.622;2023-01-10T11:04:48;5.80;99.90
4643;DHT22;2334;48.710;9.622;2023-01-10T11:07:17;5.80;99.90
4643;DHT22;2334;48.710;9.622;2023-01-10T11:09:46;5.80;99.90
4643;DHT22;2334;48.710;9.622;2023-01-10T11:12:17;5.90;99.90
4643;DHT22;2334;48.710;9.622;2023-01-10T11:14:48;5.80;99.90
4643;DHT22;2334;48.710;9.622;2023-01-10T11:17:21;5.80;99.90
4643;DHT22;2334;48.710;9.622;2023-01-10T11:19:59;5.80;99.90
4643;DHT22;2334;48.710;9.622;2023-01-10T11:22:29;5.80;99.90
4643;DHT22;2334;48.710;9.622;2023-01-10T11:24:59;5.80;99.90
4643;DHT22;2334;48.710;9.622;2023-01-10T11:27:29;5.80;99.90
4643;DHT22;2334;48.710;9.622;2023-01-10T11:29:58;5.90;99.90
4643;DHT22;2334;48.710;9.622;2023-01-10T11:32:32;5.90;99.90
4643;DHT22;2334;48.710;9.622;2023-01-10T11:35:06;5.90;99.90
4643;DHT22;2334;48.710;9.622;2023-01-10T11:37:34;5.90;99.90
4643;DHT22;2334;48.710;9.622;2023-01-10T11:40:16;5.90;99.90
4643;DHT22;2334;48.710;9.622;2023-01-10T11:42:43;5.90;99.90
4643;DHT22;2334;48.710;9.622;2023-01-10T11:45:32;5.90;99.90
4643;DHT22;2334;48.710;9.622;2023-01-10T11:48:08;6.00;99.90
4643;DHT22;2334;48.710;9.622;2023-01-10T11:50:38;6.00;99.90
4643;DHT22;2334;48.710;9.622;2023-01-10T11:53:27;6.00;99.90
4643;DHT22;2334;48.710;9.622;2023-01-10T11:55:56;6.00;99.90
4643;DHT22;2334;48.710;9.622;2023-01-10T11:58:29;6.00;99.90
4643;DHT22;2334;48.710;9.622;2023-01-10T12:00:57;6.10;99.90
4643;DHT22;2334;48.710;9.622;2023-01-10T12:03:25;6.10;99.90
4643;DHT22;2334;48.710;9.622;2023-01-10T12:05:56;6.10;99.90
4643;DHT22;2334;48.710;9.622;2023-01-10T12:08:27;6.00;99.90
4643;DHT22;2334;48.710;9.622;2023-01-10T12:10:57;6.10;99.90
4643;DHT22;2334;48.710;9.622;2023-01-10T12:13:27;6.10;99.90
4643;DHT22;2334;48.710;9.622;2023-01-10T12:16:14;6.10;99.90
4643;DHT22;2334;48.710;9.622;2023-01-10T12:18:41;6.20;99.90
4643;DHT22;2334;48.710;9.622;2023-01-10T12:21:11;6.30;99.90
4643;DHT22;2334;48.710;9.622;2023-01-10T12:23:40;6.30;99.90
4643;DHT22;2334;48.710;9.622;2023-01-10T12:26:09;6.30;99.90
4643;DHT22;2334;48.710;9.622;2023-01-10T12:28:39;6.30;99.90
4643;DHT22;2334;48.710;9.622;2023-01-10T12:31:12;6.30;99.90
4643;DHT22;2334;48.710;9.622;2023-01-10T12:33:43;6.30;99.90
4643;DHT22;2334;48.710;9.622;2023-01-10T12:36:29;6.20;99.90
4643;DHT22;2334;48.710;9.622;2023-01-10T12:39:04;6.30;99.90
4643;DHT22;2334;48.710;9.622;2023-01-10T12:41:42;6.30;99.90
4643;DHT22;2334;48.710;9.622;2023-01-10T12:44:32;6.50;99.90
4643;DHT22;2334;48.710;9.622;2023-01-10T12:47:06;6.60;99.90
4643;DHT22;2334;48.710;9.622;2023-01-10T12:49:43;6.60;99.90
4643;DHT22;2334;48.710;9.622;2023-01-10T12:52:16;6.60;99.90
4643;DHT22;2334;48.710;9.622;2023-01-10T12:54:45;6.60;99.90
4643;DHT22;2334;48.710;9.622;2023-01-10T12:57:21;6.60;99.90
4643;DHT22;2334;48.710;9.622;2023-01-10T12:59:49;6.60;99.90
4643;DHT22;2334;48.710;9.622;2023-01-10T13:02:20;6.70;99.90
4643;DHT22;2334;48.710;9.622;2023-01-10T13:04:51;6.80;99.90
4643;DHT22;2334;48.710;9.622;2023-01-10T13:07:21;6.70;99.90
4643;DHT22;2334;48.710;9.622;2023-01-10T13:09:49;6.80;99.90
4643;DHT22;2334;48.710;9.622;2023-01-10T13:12:21;6.80;99.90
4643;DHT22;2334;48.710;9.622;2023-01-10T13:14:55;6.80;99.90
4643;DHT22;2334;48.710;9.622;2023-01-10T13:17:30;7.00;99.90
4643;DHT22;2334;48.710;9.622;2023-01-10T13:20:26;7.00;99.90
4643;DHT22;2334;48.710;9.622;2023-01-10T13:22:56;7.00;99.90
4643;DHT22;2334;48.710;9.622;2023-01-10T13:25:26;7.00;99.90
4643;DHT22;2334;48.710;9.622;2023-01-10T13:27:58;7.10;99.90
4643;DHT22;2334;48.710;9.622;2023-01-10T13:30:31;7.00;99.90
4643;DHT22;2334;48.710;9.622;2023-01-10T13:33:02;7.00;99.90
4643;DHT22;2334;48.710;9.622;2023-01-10T13:35:38;7.00;99.90
4643;DHT22;2334;48.710;9.622;2023-01-10T13:38:16;7.00;99.90
4643;DHT22;2334;48.710;9.622;2023-01-10T13:40:57;6.90;99.90
4643;DHT22;2334;48.710;9.622;2023-01-10T13:46:31;6.70;99.90
4643;DHT22;2334;48.710;9.622;2023-01-10T13:49:24;6.70;99.90
4643;DHT22;2334;48.710;9.622;2023-01-10T13:55:27;6.70;99.90
4643;DHT22;2334;48.710;9.622;2023-01-10T13:57:56;6.70;99.90
4643;DHT22;2334;48.710;9.622;2023-01-10T14:03:39;6.70;99.90
4643;DHT22;2334;48.710;9.622;2023-01-10T14:06:12;6.70;99.90
4643;DHT22;2334;48.710;9.622;2023-01-10T14:08:40;6.70;99.90
4643;DHT22;2334;48.710;9.622;2023-01-10T14:11:14;6.60;99.90
4643;DHT22;2334;48.710;9.622;2023-01-10T14:13:46;6.60;99.90
4643;DHT22;2334;48.710;9.622;2023-01-10T14:16:30;6.60;99.90
4643;DHT22;2334;48.710;9.622;2023-01-10T14:18:58;6.60;99.90
4643;DHT22;2334;48.710;9.622;2023-01-10T14:21:27;6.70;99.90
4643;DHT22;2334;48.710;9.622;2023-01-10T14:23:56;6.70;99.90
4643;DHT22;2334;48.710;9.622;2023-01-10T14:26:30;6.60;99.90
4643;DHT22;2334;48.710;9.622;2023-01-10T14:28:59;6.60;99.90
4643;DHT22;2334;48.710;9.622;2023-01-10T14:31:26;6.60;99.90
4643;DHT22;2334;48.710;9.622;2023-01-10T14:33:54;6.60;99.90
4643;DHT22;2334;48.710;9.622;2023-01-10T14:36:26;6.60;99.90
4643;DHT22;2334;48.710;9.622;2023-01-10T14:38:56;6.60;99.90
4643;DHT22;2334;48.710;9.622;2023-01-10T14:41:31;6.60;99.90
4643;DHT22;2334;48.710;9.622;2023-01-10T14:44:01;6.60;99.90
4643;DHT22;2334;48.710;9.622;2023-01-10T14:46:31;6.60;99.90
4643;DHT22;2334;48.710;9.622;2023-01-10T14:48:59;6.60;99.90
4643;DHT22;2334;48.710;9.622;2023-01-10T14:51:28;6.60;99.90
4643;DHT22;2334;48.710;9.622;2023-01-10T14:53:57;6.60;99.90
4643;DHT22;2334;48.710;9.622;2023-01-10T14:56:29;6.60;99.90
4643;DHT22;2334;48.710;9.622;2023-01-10T14:58:56;6.50;99.90
4643;DHT22;2334;48.710;9.622;2023-01-10T15:01:26;6.50;99.90
4643;DHT22;2334;48.710;9.622;2023-01-10T15:03:54;6.50;99.90
4643;DHT22;2334;48.710;9.622;2023-01-10T15:06:23;6.40;99.90
4643;DHT22;2334;48.710;9.622;2023-01-10T15:08:58;6.50;99.90
4643;DHT22;2334;48.710;9.622;2023-01-10T15:11:28;6.30;99.90
4643;DHT22;2334;48.710;9.622;2023-01-10T15:14:01;6.30;99.90
4643;DHT22;2334;48.710;9.622;2023-01-10T15:16:33;6.30;99.90
4643;DHT22;2334;48.710;9.622;2023-01-10T15:19:02;6.20;99.90
4643;DHT22;2334;48.710;9.622;2023-01-10T15:21:29;6.20;99.90
4643;DHT22;2334;48.710;9.622;2023-01-10T15:23:56;6.10;99.90
4643;DHT22;2334;48.710;9.622;2023-01-10T15:26:28;6.10;99.90
4643;DHT22;2334;48.710;9.622;2023-01-10T15:29:08;6.00;99.90
4643;DHT22;2334;48.710;9.622;2023-01-10T15:31:36;5.90;99.90
4643;DHT22;2334;48.710;9.622;2023-01-10T15:34:07;5.90;99.90
4643;DHT22;2334;48.710;9.622;2023-01-10T15:36:42;5.90;99.90
4643;DHT22;2334;48.710;9.622;2023-01-10T15:39:17;5.80;99.90
4643;DHT22;2334;48.710;9.622;2023-01-10T15:41:47;5.90;99.90
4643;DHT22;2334;48.710;9.622;2023-01-10T15:44:36;5.80;99.90
4643;DHT22;2334;48.710;9.622;2023-01-10T15:47:03;5.70;99.90
4643;DHT22;2334;48.710;9.622;2023-01-10T15:49:31;5.60;99.90
4643;DHT22;2334;48.710;9.622;2023-01-10T15:51:58;5.50;99.90
4643;DHT22;2334;48.710;9.622;2023-01-10T15:54:30;5.30;99.90
4643;DHT22;2334;48.710;9.622;2023-01-10T15:57:03;5.20;99.90
4643;DHT22;2334;48.710;9.622;2023-01-10T15:59:35;5.10;99.90
4643;DHT22;2334;48.710;9.622;2023-01-10T16:02:15;4.90;99.90
4643;DHT22;2334;48.710;9.622;2023-01-10T16:04:44;4.90;99.90
4643;DHT22;2334;48.710;9.622;2023-01-10T16:07:15;4.80;99.90
4643;DHT22;2334;48.710;9.622;2023-01-10T16:09:48;4.70;99.90
4643;DHT22;2334;48.710;9.622;2023-01-10T16:12:33;4.70;99.90
4643;DHT22;2334;48.710;9.622;2023-01-10T16:15:19;4.80;99.90
4643;DHT22;2334;48.710;9.622;2023-01-10T16:17:49;4.80;99.90
4643;DHT22;2334;48.710;9.622;2023-01-10T16:20:18;4.80;99.90
4643;DHT22;2334;48.710;9.622;2023-01-10T16:22:46;4.80;99.90
4643;DHT22;2334;48.710;9.622;2023-01-10T16:25:16;4.80;99.90
4643;DHT22;2334;48.710;9.622;2023-01-10T16:27:45;4.70;99.90
4643;DHT22;2334;48.710;9.622;2023-01-10T16:30:23;4.80;99.90
4643;DHT22;2334;48.710;9.622;2023-01-10T16:32:50;4.70;99.90
4643;DHT22;2334;48.710;9.622;2023-01-10T16:35:17;4.70;99.90
4643;DHT22;2334;48.710;9.622;2023-01-10T16:37:45;4.70;99.90
4643;DHT22;2334;48.710;9.622;2023-01-10T16:40:18;4.70;99.90
4643;DHT22;2334;48.710;9.622;2023-01-10T16:42:48;4.70;99.90
4643;DHT22;2334;48.710;9.622;2023-01-10T16:45:32;4.60;99.90
4643;DHT22;2334;48.710;9.622;2023-01-10T16:48:00;4.60;99.90
4643;DHT22;2334;48.710;9.622;2023-01-10T16:50:27;4.60;99.90
4643;DHT22;2334;48.710;9.622;2023-01-10T16:52:54;4.60;99.90